»·PEaware :: QXE2812 KMSO-KSEA

QXE2812 :: KMSO-KSEA

FLIGHT INFORMATION

Flight Status: Arrived
Operator:
Horizon Air
More flights by this operator :: More flights under this callsign
Pilot: Scott L. (17677)
Aircraft: DEHAVILLAND DASH 8 400
(DH8D)
More flights by this aircraft type
Origin: KMSO Missoula Intl
United States
Destination: KSEA Seattle-Tacoma Intl
United States
More flights between these airports :: More routes between these airports
Route: +MZULA5 MLP GLASR1
File this flight plan on PilotEdge
Remarks:
Altitude:
(Current/Filed)
24,000ft
Speed:
(Current/Filed)
300kts
Departed: 19-Aug-20 10:21 AM
Arrived: 19-Aug-20 11:38 AM
Distance/Time
Traveled:
336nm/1:16
Distance/Time
To Go:
Arrived

Flight Plot

Page will automatically refresh every two minutes.

Flight plan parsing failed; only flown route is shown


Map Options




Map Legend


Flown Route
Filed Route
Departure Airport
Arrival Airport
Navaid (VOR, NDB)
Fix

Horizontal Profiles

Position Reports

Time Latitude Longitude Heading Altitude Ground
Speed
19-Aug-20 09:20 46.919672 -114.085022 168 3203ft 0kts
19-Aug-20 09:21 46.919672 -114.085022 168 3203ft 0kts
19-Aug-20 09:22 46.919672 -114.085022 168 3203ft 0kts
19-Aug-20 09:23 46.919672 -114.085022 168 3203ft 0kts
19-Aug-20 09:24 46.919672 -114.085022 168 3203ft 0kts
19-Aug-20 09:25 46.919672 -114.085022 168 3203ft 0kts
19-Aug-20 09:26 46.919672 -114.085022 168 3203ft 0kts
19-Aug-20 09:27 46.919672 -114.085022 168 3203ft 0kts
19-Aug-20 09:28 46.919672 -114.085022 168 3203ft 0kts
19-Aug-20 09:30 46.919672 -114.085022 168 3203ft 0kts
19-Aug-20 09:31 46.919672 -114.085022 168 3203ft 0kts
19-Aug-20 09:32 46.919672 -114.085022 168 3203ft 0kts
19-Aug-20 09:33 46.919672 -114.085022 168 3203ft 0kts
19-Aug-20 09:34 46.919672 -114.085022 168 3203ft 0kts
19-Aug-20 09:35 46.919672 -114.085022 168 3203ft 0kts
19-Aug-20 09:36 46.919672 -114.085022 168 3203ft 0kts
19-Aug-20 09:37 46.919672 -114.085022 168 3203ft 0kts
19-Aug-20 09:38 46.919672 -114.085022 168 3203ft 0kts
19-Aug-20 09:39 46.919672 -114.085022 168 3203ft 0kts
19-Aug-20 09:40 46.919672 -114.085022 168 3203ft 0kts
19-Aug-20 09:41 46.919672 -114.085022 168 3203ft 0kts
19-Aug-20 09:42 46.919672 -114.085022 168 3203ft 0kts
19-Aug-20 09:43 46.919672 -114.085022 168 3203ft 0kts
19-Aug-20 09:44 46.919672 -114.085022 168 3203ft 0kts
19-Aug-20 09:45 46.919672 -114.085022 168 3203ft 0kts
19-Aug-20 09:46 46.919672 -114.085022 168 3203ft 0kts
19-Aug-20 09:46 46.919672 -114.085022 168 3203ft 0kts
19-Aug-20 09:48 46.919672 -114.085022 168 3203ft 0kts
19-Aug-20 09:48 46.919672 -114.085022 168 3203ft 0kts
19-Aug-20 09:49 46.919672 -114.085022 168 3203ft 0kts
19-Aug-20 09:51 46.919672 -114.085022 168 3203ft 0kts
19-Aug-20 09:51 46.919672 -114.085022 168 3203ft 0kts
19-Aug-20 09:52 46.919672 -114.085022 168 3203ft 0kts
19-Aug-20 09:53 46.919672 -114.085022 168 3203ft 0kts
19-Aug-20 09:54 46.919672 -114.085022 168 3203ft 0kts
19-Aug-20 09:55 46.919672 -114.085022 168 3203ft 0kts
19-Aug-20 09:56 46.919672 -114.085022 168 3203ft 0kts
19-Aug-20 09:57 46.919672 -114.085022 168 3203ft 0kts
19-Aug-20 09:58 46.919672 -114.085022 168 3203ft 0kts
19-Aug-20 09:59 46.919672 -114.085022 168 3203ft 0kts
19-Aug-20 10:00 46.919672 -114.085022 168 3203ft 0kts
19-Aug-20 10:01 46.919672 -114.085022 168 3203ft 0kts
19-Aug-20 10:02 46.919672 -114.085022 168 3203ft 0kts
19-Aug-20 10:03 46.919672 -114.085022 168 3203ft 0kts
19-Aug-20 10:04 46.919672 -114.085022 168 3203ft 0kts
19-Aug-20 10:05 46.919672 -114.085022 168 3203ft 0kts
19-Aug-20 10:06 46.919672 -114.085022 168 3203ft 0kts
19-Aug-20 10:07 46.919672 -114.085022 168 3203ft 0kts
19-Aug-20 10:08 46.919672 -114.085022 168 3203ft 0kts
19-Aug-20 10:09 46.919672 -114.085022 168 3203ft 0kts
19-Aug-20 10:10 46.919672 -114.085022 168 3203ft 0kts
19-Aug-20 10:11 46.920183 -114.085126 193 3203ft 2kts
19-Aug-20 10:12 46.920429 -114.084705 258 3203ft 0kts
19-Aug-20 10:13 46.920429 -114.084705 258 3203ft 0kts
19-Aug-20 10:14 46.920427 -114.084720 258 3203ft 1kts
19-Aug-20 10:15 46.919198 -114.086876 231 3203ft 12kts
19-Aug-20 10:16 46.918113 -114.090001 222 3203ft 10kts
19-Aug-20 10:17 46.920714 -114.095825 310 3203ft 21kts
19-Aug-20 10:18 46.923867 -114.101226 307 3203ft 12kts
19-Aug-20 10:19 46.925614 -114.105265 220 3203ft 9kts
19-Aug-20 10:20 46.920957 -114.100079 129 3203ft 111kts
19-Aug-20 10:21 46.882475 -114.053172 192 4561ft 204kts
19-Aug-20 10:22 46.826129 -114.066904 175 7102ft 215kts
19-Aug-20 10:23 46.766185 -114.054809 174 9797ft 213kts
19-Aug-20 10:24 46.703745 -114.041940 175 12049ft 226kts
19-Aug-20 10:25 46.687738 -113.972503 29 14096ft 247kts
19-Aug-20 10:26 46.735550 -114.017645 298 16091ft 229kts
19-Aug-20 10:27 46.772018 -114.098479 298 18075ft 232kts
19-Aug-20 10:28 46.809298 -114.180543 298 19765ft 237kts
19-Aug-20 10:29 46.847238 -114.264228 297 21256ft 241kts
19-Aug-20 10:30 46.885675 -114.349399 296 22561ft 245kts
19-Aug-20 10:31 46.924434 -114.435481 296 23701ft 249kts
19-Aug-20 10:32 46.965528 -114.527089 297 24013ft 279kts
19-Aug-20 10:33 47.011918 -114.630781 297 24006ft 308kts
19-Aug-20 10:34 47.060710 -114.740266 297 24125ft 322kts
19-Aug-20 10:35 47.112103 -114.856130 297 24130ft 333kts
19-Aug-20 10:36 47.163981 -114.973528 297 24163ft 337kts
19-Aug-20 10:37 47.216566 -115.093060 297 24246ft 339kts
19-Aug-20 10:38 47.269152 -115.213182 298 24246ft 341kts
19-Aug-20 10:39 47.322145 -115.334625 297 24245ft 342kts
19-Aug-20 10:40 47.374496 -115.455200 297 24243ft 342kts
19-Aug-20 10:41 47.427275 -115.577302 297 24242ft 343kts
19-Aug-20 10:42 47.460226 -115.706886 273 24255ft 330kts
19-Aug-20 10:43 47.469408 -115.846871 272 24248ft 332kts
19-Aug-20 10:44 47.478007 -115.987955 272 24246ft 333kts
19-Aug-20 10:45 47.486281 -116.126657 272 24247ft 333kts
19-Aug-20 10:46 47.494515 -116.267526 272 24243ft 333kts
19-Aug-20 10:47 47.502608 -116.409199 272 24171ft 336kts
19-Aug-20 10:48 47.510522 -116.550701 272 24051ft 337kts
19-Aug-20 10:49 47.518141 -116.690122 271 24057ft 335kts
19-Aug-20 10:50 47.525754 -116.832472 271 24055ft 333kts
19-Aug-20 10:51 47.533069 -116.972655 271 24045ft 331kts
19-Aug-20 10:52 47.540218 -117.112945 271 24034ft 330kts
19-Aug-20 10:53 47.547156 -117.252448 271 24035ft 329kts
19-Aug-20 10:54 47.553936 -117.392226 271 24043ft 329kts
19-Aug-20 10:55 47.560502 -117.531112 271 24042ft 329kts
19-Aug-20 10:56 47.569374 -117.670309 273 24053ft 330kts
19-Aug-20 10:57 47.582401 -117.808031 274 24045ft 331kts
19-Aug-20 10:58 47.595671 -117.948023 274 24047ft 333kts
19-Aug-20 10:59 47.608803 -118.088272 274 24046ft 333kts
19-Aug-20 11:00 47.621735 -118.228271 274 24044ft 333kts
19-Aug-20 11:01 47.634573 -118.369194 274 24045ft 334kts
19-Aug-20 11:02 47.647218 -118.509952 274 24044ft 334kts
19-Aug-20 11:03 47.659686 -118.650724 273 24042ft 334kts
19-Aug-20 11:04 47.672111 -118.793023 273 23974ft 336kts
19-Aug-20 11:05 47.684132 -118.932767 273 23974ft 336kts
19-Aug-20 11:06 47.696155 -119.074591 273 23974ft 335kts
19-Aug-20 11:07 47.707950 -119.215851 273 23972ft 335kts
19-Aug-20 11:08 47.719597 -119.357483 273 23971ft 335kts
19-Aug-20 11:09 47.731072 -119.499248 273 23970ft 335kts
19-Aug-20 11:10 47.742263 -119.639685 273 23961ft 335kts
19-Aug-20 11:11 47.753292 -119.780672 273 23955ft 337kts
19-Aug-20 11:12 47.764326 -119.923345 273 23955ft 338kts
19-Aug-20 11:13 47.775145 -120.065911 273 23955ft 339kts
19-Aug-20 11:14 47.785696 -120.207331 273 23954ft 339kts
19-Aug-20 11:15 47.796193 -120.350582 273 23527ft 350kts
19-Aug-20 11:16 47.806718 -120.496425 272 22004ft 332kts
19-Aug-20 11:17 47.816370 -120.632864 272 20474ft 314kts
19-Aug-20 11:18 47.825403 -120.762676 271 18988ft 302kts
19-Aug-20 11:20 47.833965 -120.887839 271 17512ft 294kts
19-Aug-20 11:21 47.842218 -121.010428 271 16037ft 290kts
19-Aug-20 11:22 47.850339 -121.133016 271 14549ft 289kts
19-Aug-20 11:23 47.858326 -121.255811 272 13060ft 289kts
19-Aug-20 11:24 47.866221 -121.378812 273 11573ft 290kts
19-Aug-20 11:25 47.873855 -121.499916 273 11291ft 281kts
19-Aug-20 11:26 47.881635 -121.625210 273 12024ft 317kts
19-Aug-20 11:27 47.853029 -121.749553 225 12020ft 339kts
19-Aug-20 11:28 47.781669 -121.850994 223 12015ft 349kts
19-Aug-20 11:29 47.709523 -121.953281 231 11958ft 353kts
19-Aug-20 11:30 47.716054 -122.104701 285 10082ft 347kts
19-Aug-20 11:31 47.742262 -122.224835 285 7906ft 296kts
19-Aug-20 11:32 47.713407 -122.321886 206 5811ft 291kts
19-Aug-20 11:32 47.663993 -122.340636 165 3906ft 193kts
19-Aug-20 11:34 47.600680 -122.317915 165 2633ft 179kts
19-Aug-20 11:35 47.549707 -122.302068 174 2893ft 199kts
19-Aug-20 11:36 47.493738 -122.307681 179 1326ft 141kts
19-Aug-20 11:36 47.463524 -122.307511 180 429ft 121kts
19-Aug-20 11:37 47.449723 -122.305915 126 335ft 16kts
19-Aug-20 11:39 47.446939 -122.302688 130 335ft 9kts
19-Aug-20 11:39 47.447441 -122.301883 18 335ft 0kts
19-Aug-20 11:40 47.447441 -122.301883 18 335ft 0kts
19-Aug-20 11:41 47.447441 -122.301883 18 335ft 0kts
19-Aug-20 11:42 47.447441 -122.301883 18 335ft 0kts
19-Aug-20 11:43 47.447441 -122.301883 18 335ft 0kts
19-Aug-20 11:44 47.447441 -122.301883 18 335ft 0kts
19-Aug-20 11:45 47.447441 -122.301883 18 335ft 0kts
19-Aug-20 11:46 47.447441 -122.301883 18 335ft 0kts
19-Aug-20 11:47 47.447441 -122.301883 18 335ft 0kts
19-Aug-20 11:48 47.447441 -122.301883 18 335ft 0kts
19-Aug-20 11:49 47.447441 -122.301883 18 335ft 0kts
19-Aug-20 11:50 47.447441 -122.301883 18 335ft 0kts
19-Aug-20 11:51 47.447441 -122.301883 18 335ft 0kts

Navigation Log

Ident Type
Flight plan parsing failed, navigation log unavailable